createdAt,value
2018-12-18T00:01:13.463Z,2.50
2018-12-18T00:03:41.875Z,2.50
2018-12-18T00:06:10.422Z,2.50
2018-12-18T00:08:38.878Z,2.60
2018-12-18T00:11:10.987Z,2.60
2018-12-18T00:13:39.443Z,2.50
2018-12-18T00:16:07.862Z,2.50
2018-12-18T00:18:36.341Z,2.50
2018-12-18T00:21:04.763Z,2.50
2018-12-18T00:23:33.347Z,2.60
2018-12-18T00:26:01.752Z,2.60
2018-12-18T00:28:30.170Z,2.60
2018-12-18T00:30:58.627Z,2.70
2018-12-18T00:33:27.053Z,2.70
2018-12-18T00:35:55.650Z,2.80
2018-12-18T00:38:24.068Z,2.90
2018-12-18T00:40:52.551Z,2.90
2018-12-18T00:43:20.973Z,2.90
2018-12-18T00:45:49.433Z,3.00
2018-12-18T00:48:17.859Z,3.00
2018-12-18T00:50:46.300Z,3.00
2018-12-18T00:53:14.823Z,3.00
2018-12-18T00:55:43.276Z,3.10
2018-12-18T00:58:11.779Z,3.20
2018-12-18T01:00:40.237Z,3.20
2018-12-18T01:03:08.639Z,3.30
2018-12-18T01:05:37.053Z,3.40
2018-12-18T01:08:05.627Z,3.30
2018-12-18T01:10:34.032Z,3.30
2018-12-18T01:13:02.483Z,3.20
2018-12-18T01:15:30.931Z,3.20
2018-12-18T01:17:59.363Z,3.20
2018-12-18T01:20:27.799Z,3.20
2018-12-18T01:22:56.251Z,3.20
2018-12-18T01:25:24.736Z,3.10
2018-12-18T01:27:53.157Z,3.10
2018-12-18T01:30:21.709Z,3.20
2018-12-18T01:32:50.147Z,3.20
2018-12-18T01:35:18.631Z,3.20
2018-12-18T01:37:47.044Z,3.30
2018-12-18T01:40:15.523Z,3.20
2018-12-18T01:42:43.952Z,3.30
2018-12-18T01:45:12.424Z,3.30
2018-12-18T01:47:40.835Z,3.20
2018-12-18T01:50:09.291Z,3.30
2018-12-18T01:52:37.907Z,3.30
2018-12-18T01:55:07.403Z,3.30
2018-12-18T01:57:35.866Z,3.20
2018-12-18T02:00:05.144Z,3.20
2018-12-18T02:02:33.640Z,3.20
2018-12-18T02:05:02.066Z,3.20
2018-12-18T02:07:30.513Z,3.20
2018-12-18T02:09:58.937Z,3.20
2018-12-18T02:12:27.390Z,3.20
2018-12-18T02:14:55.819Z,3.20
2018-12-18T02:17:24.279Z,3.10
2018-12-18T02:19:52.684Z,3.10
2018-12-18T02:22:21.143Z,3.10
2018-12-18T02:24:49.582Z,3.00
2018-12-18T02:27:18.068Z,3.00
2018-12-18T02:29:46.575Z,2.90
2018-12-18T02:32:14.966Z,2.90
2018-12-18T02:34:43.429Z,2.90
2018-12-18T02:37:11.848Z,2.90
2018-12-18T02:39:40.287Z,2.90
2018-12-18T02:42:08.914Z,2.90
2018-12-18T02:44:37.319Z,2.90
2018-12-18T02:47:05.797Z,2.90
2018-12-18T02:49:34.233Z,2.80
2018-12-18T02:52:02.663Z,2.80
2018-12-18T02:54:31.135Z,2.80
2018-12-18T02:56:59.588Z,2.80
2018-12-18T02:59:28.100Z,2.80
2018-12-18T03:01:56.613Z,2.80
2018-12-18T03:04:25.097Z,2.80
2018-12-18T03:06:53.512Z,2.80
2018-12-18T03:09:22.031Z,2.80
2018-12-18T03:11:50.503Z,2.80
2018-12-18T03:14:18.951Z,2.70
2018-12-18T03:16:47.384Z,2.70
2018-12-18T03:19:15.848Z,2.70
2018-12-18T03:21:44.264Z,2.80
2018-12-18T03:24:12.709Z,2.70
2018-12-18T03:26:41.276Z,2.70
2018-12-18T03:29:10.575Z,2.70
2018-12-18T03:31:41.428Z,2.70
2018-12-18T03:34:09.933Z,2.70
2018-12-18T03:36:38.383Z,2.70
2018-12-18T03:39:07.293Z,2.70
2018-12-18T03:41:35.721Z,2.70
2018-12-18T03:44:04.179Z,2.60
2018-12-18T03:46:32.630Z,2.70
2018-12-18T03:49:01.071Z,2.70
2018-12-18T03:51:29.463Z,2.70
2018-12-18T03:53:57.908Z,2.70
2018-12-18T03:56:26.340Z,2.70
2018-12-18T03:58:54.880Z,2.70
2018-12-18T04:01:23.362Z,2.70
2018-12-18T04:03:51.816Z,2.70
2018-12-18T04:06:20.243Z,2.60
2018-12-18T04:08:48.666Z,2.60
2018-12-18T04:11:17.116Z,2.50
2018-12-18T04:13:45.542Z,2.50
2018-12-18T04:16:14.052Z,2.50
2018-12-18T04:18:42.587Z,2.50
2018-12-18T04:21:10.999Z,2.50
2018-12-18T04:23:39.457Z,2.50
2018-12-18T04:26:07.868Z,2.50
2018-12-18T04:28:36.341Z,2.50
2018-12-18T04:31:04.799Z,2.60
2018-12-18T04:33:33.291Z,2.60
2018-12-18T04:36:01.709Z,2.60
2018-12-18T04:38:30.179Z,2.70
2018-12-18T04:40:58.616Z,2.70
2018-12-18T04:43:27.152Z,2.70
2018-12-18T04:45:55.649Z,2.70
2018-12-18T04:48:24.311Z,2.70
2018-12-18T04:50:52.723Z,2.70
2018-12-18T04:53:21.167Z,2.70
2018-12-18T04:55:49.584Z,2.70
2018-12-18T04:58:18.055Z,2.60
2018-12-18T05:00:46.483Z,2.60
2018-12-18T05:03:15.015Z,2.60
2018-12-18T05:05:43.493Z,2.60
2018-12-18T05:08:11.931Z,2.70
2018-12-18T05:10:40.375Z,2.70
2018-12-18T05:13:08.787Z,2.70
2018-12-18T05:15:37.247Z,2.70
2018-12-18T05:18:05.659Z,2.70
2018-12-18T05:20:34.067Z,2.70
2018-12-18T05:23:02.528Z,2.70
2018-12-18T05:25:30.986Z,2.60
2018-12-18T05:27:59.442Z,2.70
2018-12-18T05:30:27.868Z,2.70
2018-12-18T05:32:56.475Z,2.70
2018-12-18T05:35:24.947Z,2.70
2018-12-18T05:37:53.383Z,2.70
2018-12-18T05:40:21.859Z,2.70
2018-12-18T05:42:50.300Z,2.70
2018-12-18T05:45:18.740Z,2.70
2018-12-18T05:47:47.283Z,2.70
2018-12-18T05:50:15.722Z,2.70
2018-12-18T05:52:44.152Z,2.70
2018-12-18T05:55:12.609Z,2.60
2018-12-18T05:57:41.019Z,2.60
2018-12-18T06:00:09.631Z,2.50
2018-12-18T06:02:38.052Z,2.50
2018-12-18T06:05:06.631Z,2.40
2018-12-18T06:07:35.047Z,2.40
2018-12-18T06:10:04.043Z,2.30
2018-12-18T06:12:32.447Z,2.30
2018-12-18T06:15:00.867Z,2.30
2018-12-18T06:17:29.317Z,2.30
2018-12-18T06:19:57.724Z,2.30
2018-12-18T06:22:26.195Z,2.30
2018-12-18T06:24:54.644Z,2.30
2018-12-18T06:27:23.055Z,2.20
2018-12-18T06:29:51.550Z,2.30
2018-12-18T06:32:20.000Z,2.20
2018-12-18T06:34:48.464Z,2.20
2018-12-18T06:37:16.871Z,2.20
2018-12-18T06:39:45.320Z,2.20
2018-12-18T06:42:13.784Z,2.20
2018-12-18T06:44:42.339Z,2.10
2018-12-18T06:47:10.751Z,2.10
2018-12-18T06:49:39.245Z,2.10
2018-12-18T06:52:07.666Z,2.10
2018-12-18T06:54:36.120Z,2.10
2018-12-18T06:57:04.567Z,2.20
2018-12-18T06:59:32.991Z,2.20
2018-12-18T07:02:01.446Z,2.20
2018-12-18T07:04:29.978Z,2.20
2018-12-18T07:06:58.434Z,2.20
2018-12-18T07:09:26.920Z,2.30
2018-12-18T07:11:55.450Z,2.30
2018-12-18T07:14:24.023Z,2.30
2018-12-18T07:16:52.427Z,2.30
2018-12-18T07:19:20.963Z,2.30
2018-12-18T07:21:49.372Z,2.30
2018-12-18T07:24:17.824Z,2.30
2018-12-18T07:26:46.236Z,2.30
2018-12-18T07:29:14.659Z,2.30
2018-12-18T07:31:43.107Z,2.30
2018-12-18T07:34:11.532Z,2.30
2018-12-18T07:36:39.995Z,2.30
2018-12-18T07:39:09.355Z,2.30
2018-12-18T07:41:37.791Z,2.20
2018-12-18T07:44:06.292Z,2.20
2018-12-18T07:46:34.779Z,2.30
2018-12-18T07:49:03.204Z,2.30
2018-12-18T07:51:31.763Z,2.30
2018-12-18T07:54:00.231Z,2.40
2018-12-18T07:56:28.648Z,2.50
2018-12-18T07:58:57.103Z,2.60
2018-12-18T08:01:25.550Z,2.60
2018-12-18T08:03:53.999Z,2.70
2018-12-18T08:06:22.432Z,2.70
2018-12-18T08:08:50.882Z,2.80
2018-12-18T08:11:19.299Z,2.90
2018-12-18T08:13:47.785Z,2.90
2018-12-18T08:16:16.238Z,3.00
2018-12-18T08:18:44.731Z,3.10
2018-12-18T08:21:13.175Z,3.10
2018-12-18T08:23:42.165Z,3.10
2018-12-18T08:26:10.578Z,3.20
2018-12-18T08:28:39.118Z,3.20
2018-12-18T08:31:07.579Z,3.40
2018-12-18T08:33:36.024Z,3.40
2018-12-18T08:36:04.572Z,3.50
2018-12-18T08:38:33.023Z,3.40
2018-12-18T08:41:01.463Z,3.50
2018-12-18T08:43:29.960Z,3.50
2018-12-18T08:45:58.383Z,3.50
2018-12-18T08:48:26.841Z,3.60
2018-12-18T08:50:55.254Z,3.60
2018-12-18T08:53:23.695Z,3.70
2018-12-18T08:55:52.167Z,3.70
2018-12-18T08:58:20.615Z,3.80
2018-12-18T09:00:49.115Z,3.80
2018-12-18T09:03:17.599Z,3.80
2018-12-18T09:05:46.043Z,3.80
2018-12-18T09:08:14.523Z,3.90
2018-12-18T09:10:42.951Z,3.90
2018-12-18T09:13:11.409Z,3.90
2018-12-18T09:15:46.099Z,4.00
2018-12-18T09:18:14.652Z,4.00
2018-12-18T09:20:43.291Z,4.00
2018-12-18T09:23:12.898Z,4.00
2018-12-18T09:25:41.537Z,4.00
2018-12-18T09:28:09.996Z,4.00
2018-12-18T09:30:42.449Z,4.00
2018-12-18T09:33:09.215Z,4.10
2018-12-18T09:35:38.618Z,4.10
2018-12-18T09:38:12.420Z,4.10
2018-12-18T09:40:46.232Z,4.20
2018-12-18T09:44:44.120Z,4.20
2018-12-18T09:47:12.835Z,4.20
2018-12-18T09:49:41.323Z,4.30
2018-12-18T09:52:09.743Z,4.30
2018-12-18T09:54:38.458Z,4.30
2018-12-18T09:57:11.082Z,4.30
2018-12-18T09:59:39.608Z,4.30
2018-12-18T10:02:08.013Z,4.40
2018-12-18T10:04:36.914Z,4.40
2018-12-18T10:07:05.528Z,4.40
2018-12-18T10:09:34.003Z,4.50
2018-12-18T10:12:02.643Z,4.60
2018-12-18T10:14:31.119Z,4.60
2018-12-18T10:16:59.556Z,4.70
2018-12-18T10:19:28.159Z,4.70
2018-12-18T10:21:56.620Z,4.70
2018-12-18T10:24:25.283Z,4.80
2018-12-18T10:26:53.795Z,4.90
2018-12-18T10:29:22.241Z,4.90
2018-12-18T10:31:50.699Z,4.90
2018-12-18T10:34:19.143Z,5.00
2018-12-18T10:36:47.744Z,5.00
2018-12-18T10:39:16.150Z,5.10
2018-12-18T10:41:44.615Z,5.10
2018-12-18T10:44:13.036Z,5.20
2018-12-18T10:46:41.708Z,5.20
2018-12-18T10:49:10.149Z,5.20
2018-12-18T10:51:38.683Z,5.20
2018-12-18T10:54:07.184Z,5.30
2018-12-18T10:56:35.660Z,5.30
2018-12-18T10:59:04.349Z,5.40
2018-12-18T11:01:38.195Z,5.40
2018-12-18T11:04:06.637Z,5.50
2018-12-18T11:06:35.060Z,5.50
2018-12-18T11:09:05.409Z,5.60
2018-12-18T11:11:33.882Z,5.60
2018-12-18T11:14:02.287Z,5.60
2018-12-18T11:16:37.125Z,5.70
2018-12-18T11:19:02.275Z,5.70
2018-12-18T11:21:30.697Z,5.70
2018-12-18T11:23:59.143Z,5.70
2018-12-18T11:26:27.583Z,5.70
2018-12-18T11:28:56.079Z,5.70
2018-12-18T11:31:24.491Z,5.70
2018-12-18T11:33:52.916Z,5.70
2018-12-18T11:36:21.391Z,5.70
2018-12-18T11:38:49.811Z,5.70
2018-12-18T11:41:18.299Z,5.80
2018-12-18T11:43:46.724Z,5.80
2018-12-18T11:46:15.302Z,5.80
2018-12-18T11:48:43.795Z,5.80
2018-12-18T11:51:12.211Z,5.80
2018-12-18T11:53:40.655Z,5.80
2018-12-18T11:56:10.160Z,5.80
2018-12-18T11:58:38.783Z,5.80
2018-12-18T12:01:07.289Z,5.80
2018-12-18T12:03:35.812Z,5.80
2018-12-18T12:06:04.267Z,5.80
2018-12-18T12:08:32.683Z,5.90
2018-12-18T12:11:01.110Z,6.00
2018-12-18T12:13:29.555Z,6.00
2018-12-18T12:15:57.967Z,6.10
2018-12-18T12:18:26.419Z,6.20
2018-12-18T12:20:54.838Z,6.70
2018-12-18T12:23:23.306Z,7.20
2018-12-18T12:25:51.723Z,7.50
2018-12-18T12:28:20.180Z,7.80
2018-12-18T12:30:48.607Z,8.10
2018-12-18T12:33:17.071Z,8.20
2018-12-18T12:35:45.496Z,8.40
2018-12-18T12:38:13.963Z,8.70
2018-12-18T12:40:42.451Z,9.10
2018-12-18T12:43:10.907Z,9.40
2018-12-18T12:45:39.352Z,9.90
2018-12-18T12:48:12.204Z,10.30
2018-12-18T12:50:40.653Z,10.50
2018-12-18T12:53:09.088Z,10.60
2018-12-18T12:55:37.581Z,10.70
2018-12-18T12:58:06.027Z,10.90
2018-12-18T13:00:34.774Z,11.20
2018-12-18T13:03:03.426Z,11.30
2018-12-18T13:05:31.987Z,11.40
2018-12-18T13:08:00.478Z,11.60
2018-12-18T13:10:28.951Z,11.90
2018-12-18T13:12:57.483Z,12.10
2018-12-18T13:15:26.357Z,12.00
2018-12-18T13:17:54.988Z,12.10
2018-12-18T13:20:23.745Z,12.40
2018-12-18T13:22:52.706Z,12.50
2018-12-18T13:25:21.486Z,12.80
2018-12-18T13:27:49.976Z,12.90
2018-12-18T13:30:18.464Z,13.20
2018-12-18T13:32:47.031Z,13.40
2018-12-18T13:35:15.479Z,13.60
2018-12-18T13:37:43.916Z,13.90
2018-12-18T13:40:12.508Z,14.20
2018-12-18T13:42:40.963Z,13.90
2018-12-18T13:45:09.513Z,13.10
2018-12-18T13:47:37.967Z,12.10
2018-12-18T13:50:06.627Z,11.20
2018-12-18T13:52:35.084Z,10.20
2018-12-18T13:55:03.871Z,9.50
2018-12-18T13:57:32.361Z,8.90
2018-12-18T14:00:00.815Z,8.30
2018-12-18T14:02:29.219Z,7.80
2018-12-18T14:04:57.683Z,7.50
2018-12-18T14:07:26.159Z,7.10
2018-12-18T14:09:55.323Z,6.80
2018-12-18T14:12:23.855Z,6.60
2018-12-18T14:14:52.316Z,6.30
2018-12-18T14:17:20.770Z,6.10
2018-12-18T14:19:49.187Z,5.90
2018-12-18T14:22:17.624Z,5.80
2018-12-18T14:24:46.080Z,5.70
2018-12-18T14:27:14.542Z,5.50
2018-12-18T14:29:43.007Z,5.40
2018-12-18T14:32:11.421Z,5.20
2018-12-18T14:34:40.007Z,5.10
2018-12-18T14:37:08.488Z,5.00
2018-12-18T14:39:36.904Z,4.90
2018-12-18T14:42:05.359Z,4.70
2018-12-18T14:44:33.775Z,4.60
2018-12-18T14:47:02.225Z,4.60
2018-12-18T14:49:30.652Z,4.50
2018-12-18T14:51:59.111Z,4.30
2018-12-18T14:54:28.519Z,4.20
2018-12-18T14:56:57.411Z,4.10
2018-12-18T14:59:26.108Z,4.10
2018-12-18T15:01:54.567Z,3.90
2018-12-18T15:04:23.056Z,3.80
2018-12-18T15:06:51.577Z,3.70
2018-12-18T15:09:20.039Z,3.60
2018-12-18T15:11:48.539Z,3.50
2018-12-18T15:14:16.949Z,3.40
2018-12-18T15:16:45.589Z,3.40
2018-12-18T15:19:13.999Z,3.30
2018-12-18T15:21:42.420Z,3.20
2018-12-18T15:24:10.871Z,3.20
2018-12-18T15:26:39.292Z,3.10
2018-12-18T15:29:07.755Z,3.00
2018-12-18T15:31:36.187Z,3.00
2018-12-18T15:34:04.843Z,2.90
2018-12-18T15:36:33.288Z,2.80
2018-12-18T15:39:01.826Z,2.80
2018-12-18T15:41:30.243Z,2.70
2018-12-18T15:43:58.959Z,2.70
2018-12-18T15:46:27.479Z,2.60
2018-12-18T15:48:55.931Z,2.60
2018-12-18T15:51:24.407Z,2.50
2018-12-18T15:53:52.842Z,2.50
2018-12-18T15:56:21.248Z,2.40
2018-12-18T15:58:49.728Z,2.40
2018-12-18T16:01:18.207Z,2.30
2018-12-18T16:03:46.867Z,2.30
2018-12-18T16:06:15.297Z,2.20
2018-12-18T16:08:43.755Z,2.20
2018-12-18T16:11:12.295Z,2.10
2018-12-18T16:13:40.695Z,2.10
2018-12-18T16:16:09.589Z,2.10
2018-12-18T16:18:38.035Z,2.10
2018-12-18T16:21:06.475Z,2.10
2018-12-18T16:23:34.963Z,2.00
2018-12-18T16:26:03.427Z,2.00
2018-12-18T16:28:33.060Z,2.00
2018-12-18T16:31:01.603Z,2.00
2018-12-18T16:33:30.028Z,1.90
2018-12-18T16:35:58.496Z,1.90
2018-12-18T16:38:26.935Z,1.90
2018-12-18T16:40:55.400Z,1.80
2018-12-18T16:43:23.816Z,1.80
2018-12-18T16:45:52.287Z,1.70
2018-12-18T16:48:20.725Z,1.70
2018-12-18T16:50:49.171Z,1.80
2018-12-18T16:53:17.595Z,1.80
2018-12-18T16:55:46.047Z,1.90
2018-12-18T16:58:14.460Z,1.90
2018-12-18T17:00:42.924Z,1.90
2018-12-18T17:03:11.403Z,1.90
2018-12-18T17:05:39.851Z,1.90
2018-12-18T17:08:08.287Z,1.80
2018-12-18T17:10:36.748Z,1.80
2018-12-18T17:13:05.216Z,1.90
2018-12-18T17:15:33.631Z,1.90
2018-12-18T17:18:02.095Z,1.90
2018-12-18T17:20:30.501Z,1.90
2018-12-18T17:22:58.964Z,1.90
2018-12-18T17:25:27.443Z,2.00
2018-12-18T17:27:55.947Z,2.00
2018-12-18T17:30:24.379Z,1.90
2018-12-18T17:32:52.797Z,1.90
2018-12-18T17:35:21.235Z,1.90
2018-12-18T17:37:49.723Z,1.90
2018-12-18T17:40:18.209Z,1.80
2018-12-18T17:42:46.635Z,1.80
2018-12-18T17:45:15.191Z,1.80
2018-12-18T17:47:43.611Z,1.80
2018-12-18T17:50:12.195Z,1.70
2018-12-18T17:52:40.657Z,1.70
2018-12-18T17:55:09.202Z,1.70
2018-12-18T17:57:37.728Z,1.70
2018-12-18T18:00:07.047Z,1.60
2018-12-18T18:02:35.593Z,1.60
2018-12-18T18:05:04.252Z,1.60
2018-12-18T18:07:32.673Z,1.60
2018-12-18T18:10:01.130Z,1.60
2018-12-18T18:12:30.122Z,1.60
2018-12-18T18:14:59.331Z,1.70
2018-12-18T18:17:27.791Z,1.70
2018-12-18T18:19:56.247Z,1.80
2018-12-18T18:22:24.667Z,1.80
2018-12-18T18:24:53.132Z,1.90
2018-12-18T18:27:21.666Z,1.90
2018-12-18T18:29:50.260Z,2.00
2018-12-18T18:32:18.768Z,2.00
2018-12-18T18:34:47.297Z,2.00
2018-12-18T18:37:16.135Z,1.90
2018-12-18T18:39:44.579Z,1.90
2018-12-18T18:42:13.027Z,1.80
2018-12-18T18:44:41.625Z,1.80
2018-12-18T18:47:10.076Z,1.70
2018-12-18T18:49:38.604Z,1.70
2018-12-18T18:52:07.043Z,1.70
2018-12-18T18:54:35.504Z,1.60
2018-12-18T18:57:03.919Z,1.60
2018-12-18T18:59:32.421Z,1.50
2018-12-18T19:02:00.897Z,1.50
2018-12-18T19:04:29.392Z,1.50
2018-12-18T19:06:57.835Z,1.40
2018-12-18T19:09:26.287Z,1.40
2018-12-18T19:11:54.731Z,1.30
2018-12-18T19:14:23.144Z,1.30
2018-12-18T19:16:51.582Z,1.30
2018-12-18T19:19:20.004Z,1.20
2018-12-18T19:21:48.495Z,1.20
2018-12-18T19:24:16.912Z,1.20
2018-12-18T19:26:45.345Z,1.10
2018-12-18T19:29:13.838Z,1.10
2018-12-18T19:31:42.429Z,1.10
2018-12-18T19:34:10.905Z,1.00
2018-12-18T19:36:40.187Z,1.00
2018-12-18T19:39:08.967Z,1.00
2018-12-18T19:41:37.437Z,1.00
2018-12-18T19:44:06.048Z,1.00
2018-12-18T19:46:34.467Z,0.90
2018-12-18T19:49:02.927Z,0.90
2018-12-18T19:51:31.595Z,0.80
2018-12-18T19:54:00.287Z,0.80
2018-12-18T19:56:29.095Z,0.80
2018-12-18T19:58:58.185Z,0.70
2018-12-18T20:01:26.971Z,0.70
2018-12-18T20:03:56.679Z,0.60
2018-12-18T20:06:25.740Z,0.60
2018-12-18T20:08:55.933Z,0.60
2018-12-18T20:11:25.439Z,0.60
2018-12-18T20:13:54.282Z,0.50
2018-12-18T20:16:23.106Z,0.50
2018-12-18T20:18:51.844Z,0.50
2018-12-18T20:21:20.776Z,0.50
2018-12-18T20:23:49.935Z,0.40
2018-12-18T20:26:18.667Z,0.40
2018-12-18T20:28:48.457Z,0.40
2018-12-18T20:31:17.725Z,0.40
2018-12-18T20:33:46.999Z,0.30
2018-12-18T20:36:16.140Z,0.30
2018-12-18T20:38:44.797Z,0.30
2018-12-18T20:41:13.493Z,0.30
2018-12-18T20:43:42.154Z,0.30
2018-12-18T20:46:10.574Z,0.30
2018-12-18T20:48:39.039Z,0.30
2018-12-18T20:51:07.448Z,0.30
2018-12-18T20:53:35.890Z,0.30
2018-12-18T20:56:04.611Z,0.40
2018-12-18T20:58:34.163Z,0.30
2018-12-18T21:01:02.619Z,0.30
2018-12-18T21:03:31.075Z,0.30
2018-12-18T21:05:59.479Z,0.30
2018-12-18T21:08:27.988Z,0.20
2018-12-18T21:10:56.518Z,0.20
2018-12-18T21:13:32.019Z,0.20
2018-12-18T21:16:00.439Z,0.20
2018-12-18T21:18:28.851Z,0.20
2018-12-18T21:20:57.558Z,0.10
2018-12-18T21:23:25.987Z,0.10
2018-12-18T21:25:54.524Z,0.10
2018-12-18T21:28:22.970Z,0.10
2018-12-18T21:30:51.596Z,0.10
2018-12-18T21:33:20.008Z,0.10
2018-12-18T21:35:48.470Z,0.10
2018-12-18T21:38:16.947Z,0.10
2018-12-18T21:40:45.400Z,0.10
2018-12-18T21:43:14.135Z,0.10
2018-12-18T21:45:42.975Z,0.10
2018-12-18T21:48:11.498Z,0.10
2018-12-18T21:50:39.920Z,0.10
2018-12-18T21:53:08.475Z,0.10
2018-12-18T21:55:36.938Z,0.10
2018-12-18T21:58:05.398Z,0.20
2018-12-18T22:00:33.820Z,0.20
2018-12-18T22:03:02.269Z,0.20
2018-12-18T22:05:30.732Z,0.20
2018-12-18T22:07:59.421Z,0.20
2018-12-18T22:10:27.863Z,0.20
2018-12-18T22:12:56.306Z,0.20
2018-12-18T22:15:24.759Z,0.20
2018-12-18T22:17:53.249Z,0.30
2018-12-18T22:20:21.655Z,0.30
2018-12-18T22:22:50.139Z,0.30
2018-12-18T22:25:18.687Z,0.20
2018-12-18T22:27:47.243Z,0.20
2018-12-18T22:30:16.400Z,0.20
2018-12-18T22:32:44.843Z,0.20
2018-12-18T22:35:13.394Z,0.20
2018-12-18T22:37:41.863Z,0.30
2018-12-18T22:40:10.391Z,0.30
2018-12-18T22:42:38.978Z,0.20
2018-12-18T22:45:07.643Z,0.30
2018-12-18T22:47:36.113Z,0.20
2018-12-18T22:50:05.363Z,0.20
2018-12-18T22:52:33.812Z,0.20
2018-12-18T22:55:02.235Z,0.20
2018-12-18T22:57:30.715Z,0.10
2018-12-18T22:59:59.151Z,0.10
2018-12-18T23:02:27.647Z,0.10
2018-12-18T23:04:56.287Z,0.10
2018-12-18T23:07:24.727Z,0.10
2018-12-18T23:09:53.190Z,0.10
2018-12-18T23:12:21.643Z,0.10
2018-12-18T23:14:50.087Z,0.10
2018-12-18T23:17:18.515Z,0.10
2018-12-18T23:19:46.977Z,0.10
2018-12-18T23:22:15.444Z,0.00
2018-12-18T23:25:47.143Z,0.10
2018-12-18T23:28:15.551Z,0.00
2018-12-18T23:30:43.976Z,0.00
2018-12-18T23:33:12.444Z,0.00
2018-12-18T23:35:40.863Z,-0.10
2018-12-18T23:38:09.343Z,-0.10
2018-12-18T23:40:37.796Z,-0.10
2018-12-18T23:43:06.255Z,-0.10
2018-12-18T23:45:34.654Z,-0.20
2018-12-18T23:48:03.137Z,-0.20
2018-12-18T23:50:31.554Z,-0.20
2018-12-18T23:53:00.028Z,-0.20
2018-12-18T23:55:28.503Z,-0.20
2018-12-18T23:57:57.003Z,-0.20
